sensor_id;sensor_type;location;lat;lon;timestamp;pressure;altitude;pressure_sealevel;temperature;humidity
29371;BME280;16357;52.188;7.838;2023-02-28T00:01:06;102404.66;;;2.81;54.79
29371;BME280;16357;52.188;7.838;2023-02-28T00:03:32;102404.88;;;2.77;54.75
29371;BME280;16357;52.188;7.838;2023-02-28T00:06:06;102405.00;;;2.74;54.75
29371;BME280;16357;52.188;7.838;2023-02-28T00:08:32;102403.47;;;2.68;54.74
29371;BME280;16357;52.188;7.838;2023-02-28T00:11:04;102408.03;;;2.64;54.94
29371;BME280;16357;52.188;7.838;2023-02-28T00:13:31;102406.44;;;2.60;55.22
29371;BME280;16357;52.188;7.838;2023-02-28T00:16:05;102408.38;;;2.57;55.32
29371;BME280;16357;52.188;7.838;2023-02-28T00:18:32;102406.69;;;2.54;55.31
29371;BME280;16357;52.188;7.838;2023-02-28T00:20:59;102398.88;;;2.51;55.71
29371;BME280;16357;52.188;7.838;2023-02-28T00:23:26;102409.53;;;2.50;55.55
29371;BME280;16357;52.188;7.838;2023-02-28T00:25:53;102413.97;;;2.49;55.65
29371;BME280;16357;52.188;7.838;2023-02-28T00:28:20;102406.97;;;2.48;55.73
29371;BME280;16357;52.188;7.838;2023-02-28T00:30:47;102400.81;;;2.48;55.65
29371;BME280;16357;52.188;7.838;2023-02-28T00:33:13;102410.53;;;2.47;55.88
29371;BME280;16357;52.188;7.838;2023-02-28T00:35:40;102408.75;;;2.48;55.77
29371;BME280;16357;52.188;7.838;2023-02-28T00:38:06;102406.97;;;2.48;56.12
29371;BME280;16357;52.188;7.838;2023-02-28T00:40:33;102399.94;;;2.47;56.06
29371;BME280;16357;52.188;7.838;2023-02-28T00:42:59;102401.66;;;2.48;56.23
29371;BME280;16357;52.188;7.838;2023-02-28T00:45:26;102406.09;;;2.48;56.16
29371;BME280;16357;52.188;7.838;2023-02-28T00:47:52;102405.16;;;2.49;56.11
29371;BME280;16357;52.188;7.838;2023-02-28T00:50:19;102387.47;;;2.49;56.25
29371;BME280;16357;52.188;7.838;2023-02-28T00:52:47;102391.00;;;2.50;56.21
29371;BME280;16357;52.188;7.838;2023-02-28T00:55:14;102383.94;;;2.50;56.48
29371;BME280;16357;52.188;7.838;2023-02-28T00:57:41;102383.00;;;2.51;56.58
29371;BME280;16357;52.188;7.838;2023-02-28T01:00:09;102389.09;;;2.53;56.50
29371;BME280;16357;52.188;7.838;2023-02-28T01:02:35;102389.94;;;2.54;56.58
29371;BME280;16357;52.188;7.838;2023-02-28T01:05:02;102388.25;;;2.53;56.34
29371;BME280;16357;52.188;7.838;2023-02-28T01:07:29;102386.50;;;2.52;56.35
29371;BME280;16357;52.188;7.838;2023-02-28T01:09:55;102388.28;;;2.51;56.23
29371;BME280;16357;52.188;7.838;2023-02-28T01:12:22;102386.63;;;2.49;56.18
29371;BME280;16357;52.188;7.838;2023-02-28T01:14:48;102389.31;;;2.47;56.53
29371;BME280;16357;52.188;7.838;2023-02-28T01:17:15;102392.06;;;2.46;56.51
29371;BME280;16357;52.188;7.838;2023-02-28T01:19:42;102396.56;;;2.44;56.42
29371;BME280;16357;52.188;7.838;2023-02-28T01:22:08;102389.53;;;2.42;56.65
29371;BME280;16357;52.188;7.838;2023-02-28T01:24:35;102392.25;;;2.41;56.43
29371;BME280;16357;52.188;7.838;2023-02-28T01:27:02;102394.94;;;2.39;56.57
29371;BME280;16357;52.188;7.838;2023-02-28T01:29:28;102391.44;;;2.39;56.71
29371;BME280;16357;52.188;7.838;2023-02-28T01:31:55;102393.28;;;2.37;56.69
29371;BME280;16357;52.188;7.838;2023-02-28T01:34:21;102398.56;;;2.37;56.82
29371;BME280;16357;52.188;7.838;2023-02-28T01:36:47;102390.63;;;2.37;56.89
29371;BME280;16357;52.188;7.838;2023-02-28T01:39:14;102395.03;;;2.38;56.98
29371;BME280;16357;52.188;7.838;2023-02-28T01:41:40;102386.13;;;2.39;56.91
29371;BME280;16357;52.188;7.838;2023-02-28T01:47:11;102378.94;;;2.42;56.67
29371;BME280;16357;52.188;7.838;2023-02-28T01:49:39;102379.72;;;2.45;56.98
29371;BME280;16357;52.188;7.838;2023-02-28T01:52:06;102376.09;;;2.47;56.91
29371;BME280;16357;52.188;7.838;2023-02-28T01:54:34;102376.03;;;2.49;57.18
29371;BME280;16357;52.188;7.838;2023-02-28T01:57:04;102373.34;;;2.50;57.07
29371;BME280;16357;52.188;7.838;2023-02-28T01:59:36;102382.06;;;2.52;56.95
29371;BME280;16357;52.188;7.838;2023-02-28T02:02:04;102380.22;;;2.54;56.89
29371;BME280;16357;52.188;7.838;2023-02-28T02:04:37;102374.84;;;2.56;56.60
29371;BME280;16357;52.188;7.838;2023-02-28T02:07:06;102383.59;;;2.58;56.63
29371;BME280;16357;52.188;7.838;2023-02-28T02:09:33;102384.47;;;2.58;56.81
29371;BME280;16357;52.188;7.838;2023-02-28T02:12:10;102375.59;;;2.59;56.56
29371;BME280;16357;52.188;7.838;2023-02-28T02:14:52;102370.28;;;2.59;56.44
29371;BME280;16357;52.188;7.838;2023-02-28T02:17:33;102372.94;;;2.59;56.77
29371;BME280;16357;52.188;7.838;2023-02-28T02:20:30;102370.28;;;2.59;56.51
29371;BME280;16357;52.188;7.838;2023-02-28T02:28:11;102375.84;;;2.53;56.59
29371;BME280;16357;52.188;7.838;2023-02-28T02:33:58;102378.81;;;2.46;56.61
29371;BME280;16357;52.188;7.838;2023-02-28T02:36:52;102371.09;;;2.39;56.61
29371;BME280;16357;52.188;7.838;2023-02-28T02:39:48;102374.94;;;2.32;56.34
29371;BME280;16357;52.188;7.838;2023-02-28T02:42:28;102375.25;;;2.25;56.42
29371;BME280;16357;52.188;7.838;2023-02-28T02:44:59;102382.56;;;2.18;56.45
29371;BME280;16357;52.188;7.838;2023-02-28T02:47:29;102382.84;;;2.12;56.75
29371;BME280;16357;52.188;7.838;2023-02-28T02:49:59;102382.28;;;2.04;56.66
29371;BME280;16357;52.188;7.838;2023-02-28T02:52:34;102387.88;;;1.96;56.92
29371;BME280;16357;52.188;7.838;2023-02-28T02:55:02;102384.41;;;1.94;56.96
29371;BME280;16357;52.188;7.838;2023-02-28T02:57:35;102387.31;;;1.88;56.67
29371;BME280;16357;52.188;7.838;2023-02-28T03:00:04;102391.06;;;1.82;56.82
29371;BME280;16357;52.188;7.838;2023-02-28T03:02:36;102386.91;;;1.75;57.18
29371;BME280;16357;52.188;7.838;2023-02-28T03:05:14;102387.94;;;1.71;57.35
29371;BME280;16357;52.188;7.838;2023-02-28T03:07:43;102382.84;;;1.66;57.40
29371;BME280;16357;52.188;7.838;2023-02-28T03:10:29;102382.03;;;1.64;57.57
29371;BME280;16357;52.188;7.838;2023-02-28T03:18:43;102388.56;;;1.56;57.55
29371;BME280;16357;52.188;7.838;2023-02-28T03:21:25;102385.94;;;1.54;57.46
29371;BME280;16357;52.188;7.838;2023-02-28T03:26:39;102385.28;;;1.47;57.92
29371;BME280;16357;52.188;7.838;2023-02-28T03:29:33;102389.81;;;1.45;57.95
29371;BME280;16357;52.188;7.838;2023-02-28T03:32:32;102395.13;;;1.44;58.21
29371;BME280;16357;52.188;7.838;2023-02-28T03:35:10;102401.34;;;1.43;58.05
29371;BME280;16357;52.188;7.838;2023-02-28T03:37:40;102399.56;;;1.43;58.20
29371;BME280;16357;52.188;7.838;2023-02-28T03:40:11;102393.44;;;1.43;58.27
29371;BME280;16357;52.188;7.838;2023-02-28T03:42:41;102395.13;;;1.44;58.54
29371;BME280;16357;52.188;7.838;2023-02-28T03:45:13;102395.13;;;1.44;58.24
29371;BME280;16357;52.188;7.838;2023-02-28T03:47:48;102396.94;;;1.43;58.34
29371;BME280;16357;52.188;7.838;2023-02-28T03:53:01;102390.78;;;1.43;58.39
29371;BME280;16357;52.188;7.838;2023-02-28T03:55:37;102390.81;;;1.41;58.12
29371;BME280;16357;52.188;7.838;2023-02-28T04:00:57;102386.41;;;1.42;58.03
29371;BME280;16357;52.188;7.838;2023-02-28T04:03:25;102385.66;;;1.38;58.26
29371;BME280;16357;52.188;7.838;2023-02-28T04:05:54;102388.34;;;1.37;57.87
29371;BME280;16357;52.188;7.838;2023-02-28T04:08:21;102390.22;;;1.35;58.16
29371;BME280;16357;52.188;7.838;2023-02-28T04:10:54;102391.09;;;1.34;58.07
29371;BME280;16357;52.188;7.838;2023-02-28T04:13:22;102389.41;;;1.33;58.05
29371;BME280;16357;52.188;7.838;2023-02-28T04:15:48;102388.56;;;1.30;57.96
29371;BME280;16357;52.188;7.838;2023-02-28T04:18:15;102392.16;;;1.29;57.97
29371;BME280;16357;52.188;7.838;2023-02-28T04:20:41;102394.84;;;1.28;58.13
29371;BME280;16357;52.188;7.838;2023-02-28T04:23:08;102394.03;;;1.26;57.62
29371;BME280;16357;52.188;7.838;2023-02-28T04:25:34;102389.66;;;1.25;57.99
29371;BME280;16357;52.188;7.838;2023-02-28T04:28:00;102391.50;;;1.23;57.77
29371;BME280;16357;52.188;7.838;2023-02-28T04:30:27;102389.81;;;1.20;57.77
29371;BME280;16357;52.188;7.838;2023-02-28T04:32:53;102385.50;;;1.18;57.74
29371;BME280;16357;52.188;7.838;2023-02-28T04:35:20;102390.88;;;1.16;57.58
29371;BME280;16357;52.188;7.838;2023-02-28T04:37:46;102398.00;;;1.14;57.79
29371;BME280;16357;52.188;7.838;2023-02-28T04:40:13;102394.53;;;1.12;57.60
29371;BME280;16357;52.188;7.838;2023-02-28T04:42:39;102395.50;;;1.09;57.83
29371;BME280;16357;52.188;7.838;2023-02-28T04:45:06;102393.00;;;1.05;57.60
29371;BME280;16357;52.188;7.838;2023-02-28T04:47:33;102392.22;;;1.03;57.51
29371;BME280;16357;52.188;7.838;2023-02-28T04:49:59;102392.31;;;1.00;57.40
29371;BME280;16357;52.188;7.838;2023-02-28T04:52:27;102392.41;;;0.97;57.46
29371;BME280;16357;52.188;7.838;2023-02-28T04:54:54;102394.34;;;0.92;57.49
29371;BME280;16357;52.188;7.838;2023-02-28T04:57:20;102404.16;;;0.90;57.24
29371;BME280;16357;52.188;7.838;2023-02-28T04:59:46;102399.88;;;0.85;57.34
29371;BME280;16357;52.188;7.838;2023-02-28T05:02:13;102398.19;;;0.83;57.25
29371;BME280;16357;52.188;7.838;2023-02-28T05:04:39;102400.88;;;0.81;57.29
29371;BME280;16357;52.188;7.838;2023-02-28T05:07:06;102397.47;;;0.78;57.34
29371;BME280;16357;52.188;7.838;2023-02-28T05:09:32;102402.81;;;0.76;57.48
29371;BME280;16357;52.188;7.838;2023-02-28T05:11:59;102401.09;;;0.75;57.10
29371;BME280;16357;52.188;7.838;2023-02-28T05:14:26;102403.78;;;0.74;57.19
29371;BME280;16357;52.188;7.838;2023-02-28T05:16:52;102404.69;;;0.73;57.13
29371;BME280;16357;52.188;7.838;2023-02-28T05:19:19;102403.88;;;0.71;57.22
29371;BME280;16357;52.188;7.838;2023-02-28T05:21:52;102414.44;;;0.71;56.88
29371;BME280;16357;52.188;7.838;2023-02-28T05:24:19;102411.03;;;0.69;57.04
29371;BME280;16357;52.188;7.838;2023-02-28T05:26:50;102414.53;;;0.69;57.25
29371;BME280;16357;52.188;7.838;2023-02-28T05:29:18;102404.84;;;0.68;57.34
29371;BME280;16357;52.188;7.838;2023-02-28T05:31:45;102410.09;;;0.70;57.35
29371;BME280;16357;52.188;7.838;2023-02-28T05:34:11;102417.91;;;0.73;57.43
29371;BME280;16357;52.188;7.838;2023-02-28T05:36:38;102418.66;;;0.76;57.34
29371;BME280;16357;52.188;7.838;2023-02-28T05:39:06;102424.66;;;0.81;57.30
29371;BME280;16357;52.188;7.838;2023-02-28T05:41:33;102422.72;;;0.86;57.26
29371;BME280;16357;52.188;7.838;2023-02-28T05:44:00;102427.84;;;0.91;57.42
29371;BME280;16357;52.188;7.838;2023-02-28T05:46:26;102426.78;;;0.97;57.30
29371;BME280;16357;52.188;7.838;2023-02-28T05:48:53;102424.84;;;1.02;57.34
29371;BME280;16357;52.188;7.838;2023-02-28T05:51:19;102426.34;;;1.09;57.01
29371;BME280;16357;52.188;7.838;2023-02-28T05:53:46;102430.56;;;1.15;56.97
29371;BME280;16357;52.188;7.838;2023-02-28T05:56:14;102428.63;;;1.20;56.78
29371;BME280;16357;52.188;7.838;2023-02-28T05:58:41;102424.03;;;1.25;56.43
29371;BME280;16357;52.188;7.838;2023-02-28T06:01:34;102427.38;;;1.30;56.37
29371;BME280;16357;52.188;7.838;2023-02-28T06:04:02;102430.75;;;1.34;55.99
29371;BME280;16357;52.188;7.838;2023-02-28T06:06:30;102430.75;;;1.34;55.63
29371;BME280;16357;52.188;7.838;2023-02-28T06:08:57;102425.56;;;1.32;55.84
29371;BME280;16357;52.188;7.838;2023-02-28T06:11:23;102422.94;;;1.30;55.99
29371;BME280;16357;52.188;7.838;2023-02-28T06:13:57;102422.13;;;1.28;55.58
29371;BME280;16357;52.188;7.838;2023-02-28T06:16:27;102427.53;;;1.25;55.17
29371;BME280;16357;52.188;7.838;2023-02-28T06:18:54;102426.78;;;1.22;55.29
29371;BME280;16357;52.188;7.838;2023-02-28T06:21:22;102424.31;;;1.17;55.13
29371;BME280;16357;52.188;7.838;2023-02-28T06:23:49;102428.03;;;1.12;55.30
29371;BME280;16357;52.188;7.838;2023-02-28T06:26:16;102429.94;;;1.08;55.48
29371;BME280;16357;52.188;7.838;2023-02-28T06:28:43;102429.22;;;1.03;55.92
29371;BME280;16357;52.188;7.838;2023-02-28T06:31:11;102426.66;;;1.00;55.52
29371;BME280;16357;52.188;7.838;2023-02-28T06:33:38;102427.63;;;0.97;55.80
29371;BME280;16357;52.188;7.838;2023-02-28T06:36:06;102429.63;;;0.91;56.01
29371;BME280;16357;52.188;7.838;2023-02-28T06:38:33;102432.38;;;0.87;56.06
29371;BME280;16357;52.188;7.838;2023-02-28T06:41:00;102429.84;;;0.84;55.88
29371;BME280;16357;52.188;7.838;2023-02-28T06:43:29;102428.22;;;0.80;56.55
29371;BME280;16357;52.188;7.838;2023-02-28T06:45:58;102435.28;;;0.80;56.39
29371;BME280;16357;52.188;7.838;2023-02-28T06:48:26;102441.53;;;0.77;56.69
29371;BME280;16357;52.188;7.838;2023-02-28T06:51:04;102442.44;;;0.76;56.65
29371;BME280;16357;52.188;7.838;2023-02-28T06:53:32;102436.25;;;0.77;56.76
29371;BME280;16357;52.188;7.838;2023-02-28T06:55:58;102445.03;;;0.78;57.07
29371;BME280;16357;52.188;7.838;2023-02-28T06:58:25;102454.63;;;0.80;56.81
29371;BME280;16357;52.188;7.838;2023-02-28T07:00:52;102453.63;;;0.84;56.85
29371;BME280;16357;52.188;7.838;2023-02-28T07:03:19;102450.88;;;0.87;57.16
29371;BME280;16357;52.188;7.838;2023-02-28T07:05:45;102455.03;;;0.95;57.06
29371;BME280;16357;52.188;7.838;2023-02-28T07:08:12;102455.72;;;1.00;56.84
29371;BME280;16357;52.188;7.838;2023-02-28T07:10:39;102453.75;;;1.06;56.85
29371;BME280;16357;52.188;7.838;2023-02-28T07:13:07;102459.69;;;1.13;56.94
29371;BME280;16357;52.188;7.838;2023-02-28T07:15:34;102454.19;;;1.19;56.94
29371;BME280;16357;52.188;7.838;2023-02-28T07:18:04;102458.41;;;1.25;57.23
29371;BME280;16357;52.188;7.838;2023-02-28T07:20:31;102461.75;;;1.30;57.42
29371;BME280;16357;52.188;7.838;2023-02-28T07:22:57;102455.38;;;1.36;57.35
29371;BME280;16357;52.188;7.838;2023-02-28T07:25:26;102455.16;;;1.42;57.10
29371;BME280;16357;52.188;7.838;2023-02-28T07:27:53;102459.34;;;1.47;57.33
29371;BME280;16357;52.188;7.838;2023-02-28T07:30:20;102453.84;;;1.53;57.45
29371;BME280;16357;52.188;7.838;2023-02-28T07:32:47;102457.13;;;1.60;57.73
29371;BME280;16357;52.188;7.838;2023-02-28T07:35:14;102455.13;;;1.67;57.55
29371;BME280;16357;52.188;7.838;2023-02-28T07:37:42;102464.50;;;1.75;57.49
29371;BME280;16357;52.188;7.838;2023-02-28T07:40:10;102462.44;;;1.84;57.62
29371;BME280;16357;52.188;7.838;2023-02-28T07:42:41;102469.19;;;1.92;57.32
29371;BME280;16357;52.188;7.838;2023-02-28T07:45:09;102470.59;;;2.01;56.49
29371;BME280;16357;52.188;7.838;2023-02-28T07:47:38;102475.53;;;2.10;56.28
29371;BME280;16357;52.188;7.838;2023-02-28T07:50:06;102468.16;;;2.18;56.10
29371;BME280;16357;52.188;7.838;2023-02-28T07:52:33;102472.13;;;2.30;56.06
29371;BME280;16357;52.188;7.838;2023-02-28T07:54:59;102471.75;;;2.39;56.07
29371;BME280;16357;52.188;7.838;2023-02-28T07:57:26;102466.94;;;2.49;56.17
29371;BME280;16357;52.188;7.838;2023-02-28T07:59:52;102472.78;;;2.57;56.01
29371;BME280;16357;52.188;7.838;2023-02-28T08:02:19;102469.78;;;2.67;55.64
29371;BME280;16357;52.188;7.838;2023-02-28T08:04:45;102465.88;;;2.75;55.40
29371;BME280;16357;52.188;7.838;2023-02-28T08:07:13;102470.03;;;2.82;55.18
29371;BME280;16357;52.188;7.838;2023-02-28T08:09:40;102473.25;;;2.89;54.92
29371;BME280;16357;52.188;7.838;2023-02-28T08:12:07;102472.09;;;2.96;54.82
29371;BME280;16357;52.188;7.838;2023-02-28T08:14:34;102470.09;;;3.01;54.47
29371;BME280;16357;52.188;7.838;2023-02-28T08:17:01;102473.34;;;3.08;54.10
29371;BME280;16357;52.188;7.838;2023-02-28T08:19:28;102478.47;;;3.13;54.15
29371;BME280;16357;52.188;7.838;2023-02-28T08:21:55;102476.47;;;3.18;53.60
29371;BME280;16357;52.188;7.838;2023-02-28T08:24:22;102468.28;;;3.24;53.42
29371;BME280;16357;52.188;7.838;2023-02-28T08:26:49;102468.00;;;3.30;52.81
29371;BME280;16357;52.188;7.838;2023-02-28T08:29:16;102470.38;;;3.36;53.15
29371;BME280;16357;52.188;7.838;2023-02-28T08:31:43;102478.09;;;3.42;52.78
29371;BME280;16357;52.188;7.838;2023-02-28T08:34:11;102478.66;;;3.49;52.34
29371;BME280;16357;52.188;7.838;2023-02-28T08:36:38;102485.47;;;3.55;52.42
29371;BME280;16357;52.188;7.838;2023-02-28T08:39:06;102471.03;;;3.62;51.70
29371;BME280;16357;52.188;7.838;2023-02-28T08:41:33;102475.19;;;3.67;51.44
29371;BME280;16357;52.188;7.838;2023-02-28T08:43:59;102470.47;;;3.74;51.13
29371;BME280;16357;52.188;7.838;2023-02-28T08:46:26;102474.56;;;3.81;51.16
29371;BME280;16357;52.188;7.838;2023-02-28T08:48:54;102472.50;;;3.88;50.88
29371;BME280;16357;52.188;7.838;2023-02-28T08:51:21;102477.50;;;3.94;50.31
29371;BME280;16357;52.188;7.838;2023-02-28T08:54:00;102476.22;;;4.03;49.88
29371;BME280;16357;52.188;7.838;2023-02-28T08:56:27;102472.44;;;4.08;49.49
29371;BME280;16357;52.188;7.838;2023-02-28T08:58:55;102480.13;;;4.14;48.50
29371;BME280;16357;52.188;7.838;2023-02-28T09:01:25;102478.91;;;4.22;48.52
29371;BME280;16357;52.188;7.838;2023-02-28T09:03:54;102479.44;;;4.28;48.95
29371;BME280;16357;52.188;7.838;2023-02-28T09:06:26;102481.91;;;4.33;48.17
29371;BME280;16357;52.188;7.838;2023-02-28T09:08:56;102479.78;;;4.39;48.56
29371;BME280;16357;52.188;7.838;2023-02-28T09:11:24;102488.34;;;4.46;48.47
29371;BME280;16357;52.188;7.838;2023-02-28T09:13:51;102475.69;;;4.51;48.31
29371;BME280;16357;52.188;7.838;2023-02-28T09:16:18;102476.34;;;4.56;47.61
29371;BME280;16357;52.188;7.838;2023-02-28T09:18:45;102471.56;;;4.63;47.44
29371;BME280;16357;52.188;7.838;2023-02-28T09:21:14;102474.88;;;4.68;47.85
29371;BME280;16357;52.188;7.838;2023-02-28T09:23:42;102479.00;;;4.74;47.21
29371;BME280;16357;52.188;7.838;2023-02-28T09:26:17;102478.72;;;4.80;47.29
29371;BME280;16357;52.188;7.838;2023-02-28T09:28:44;102476.56;;;4.88;47.85
29371;BME280;16357;52.188;7.838;2023-02-28T09:31:14;102474.38;;;4.96;48.54
29371;BME280;16357;52.188;7.838;2023-02-28T09:33:42;102475.06;;;5.00;47.65
29371;BME280;16357;52.188;7.838;2023-02-28T09:36:08;102476.63;;;5.04;46.78
29371;BME280;16357;52.188;7.838;2023-02-28T09:38:35;102471.16;;;5.07;47.40
29371;BME280;16357;52.188;7.838;2023-02-28T09:41:14;102474.50;;;5.11;46.93
29371;BME280;16357;52.188;7.838;2023-02-28T09:43:45;102469.91;;;5.14;47.07
29371;BME280;16357;52.188;7.838;2023-02-28T09:49:00;102470.38;;;5.22;46.65
29371;BME280;16357;52.188;7.838;2023-02-28T09:51:34;102471.91;;;5.26;46.25
29371;BME280;16357;52.188;7.838;2023-02-28T09:54:04;102480.53;;;5.32;46.79
29371;BME280;16357;52.188;7.838;2023-02-28T09:56:36;102476.72;;;5.37;46.33
29371;BME280;16357;52.188;7.838;2023-02-28T10:04:52;102476.50;;;5.58;44.92
29371;BME280;16357;52.188;7.838;2023-02-28T10:10:04;102482.22;;;5.67;44.38
29371;BME280;16357;52.188;7.838;2023-02-28T10:12:32;102474.06;;;5.70;43.88
29371;BME280;16357;52.188;7.838;2023-02-28T10:15:00;102476.56;;;5.73;44.21
29371;BME280;16357;52.188;7.838;2023-02-28T10:17:38;102473.56;;;5.80;43.98
29371;BME280;16357;52.188;7.838;2023-02-28T10:20:22;102461.63;;;5.87;43.82
29371;BME280;16357;52.188;7.838;2023-02-28T10:23:11;102468.38;;;5.94;43.56
29371;BME280;16357;52.188;7.838;2023-02-28T10:25:39;102473.47;;;5.99;43.62
29371;BME280;16357;52.188;7.838;2023-02-28T10:28:10;102479.31;;;6.05;42.86
29371;BME280;16357;52.188;7.838;2023-02-28T10:30:42;102479.06;;;6.10;43.58
29371;BME280;16357;52.188;7.838;2023-02-28T10:33:23;102478.72;;;6.16;43.71
29371;BME280;16357;52.188;7.838;2023-02-28T10:35:52;102481.06;;;6.22;42.41
29371;BME280;16357;52.188;7.838;2023-02-28T10:38:22;102477.19;;;6.28;42.97
29371;BME280;16357;52.188;7.838;2023-02-28T10:40:50;102470.66;;;6.33;42.75
29371;BME280;16357;52.188;7.838;2023-02-28T10:43:19;102462.22;;;6.41;43.11
29371;BME280;16357;52.188;7.838;2023-02-28T10:46:10;102462.75;;;6.48;43.25
29371;BME280;16357;52.188;7.838;2023-02-28T10:51:15;102470.13;;;6.58;42.40
29371;BME280;16357;52.188;7.838;2023-02-28T10:53:52;102463.59;;;6.64;42.20
29371;BME280;16357;52.188;7.838;2023-02-28T10:56:27;102467.94;;;6.65;41.26
29371;BME280;16357;52.188;7.838;2023-02-28T10:59:26;102464.25;;;6.68;40.50
29371;BME280;16357;52.188;7.838;2023-02-28T11:01:53;102444.63;;;6.69;41.57
29371;BME280;16357;52.188;7.838;2023-02-28T11:07:00;102452.28;;;6.75;41.79
29371;BME280;16357;52.188;7.838;2023-02-28T11:09:31;102452.97;;;6.78;42.15
29371;BME280;16357;52.188;7.838;2023-02-28T11:12:00;102451.00;;;6.82;41.46
29371;BME280;16357;52.188;7.838;2023-02-28T11:14:30;102448.03;;;6.87;40.84
29371;BME280;16357;52.188;7.838;2023-02-28T11:17:03;102445.16;;;6.90;41.07
29371;BME280;16357;52.188;7.838;2023-02-28T11:19:45;102445.88;;;6.93;41.22
29371;BME280;16357;52.188;7.838;2023-02-28T11:22:19;102443.78;;;6.98;41.07
29371;BME280;16357;52.188;7.838;2023-02-28T11:24:50;102437.31;;;7.02;41.14
29371;BME280;16357;52.188;7.838;2023-02-28T11:29:58;102440.38;;;7.11;40.40
29371;BME280;16357;52.188;7.838;2023-02-28T11:32:29;102428.66;;;7.13;40.92
29371;BME280;16357;52.188;7.838;2023-02-28T11:37:38;102431.81;;;7.20;41.09
29371;BME280;16357;52.188;7.838;2023-02-28T11:40:12;102440.41;;;7.25;40.97
29371;BME280;16357;52.188;7.838;2023-02-28T11:45:45;102423.53;;;7.39;41.04
29371;BME280;16357;52.188;7.838;2023-02-28T11:48:22;102427.44;;;7.47;40.45
29371;BME280;16357;52.188;7.838;2023-02-28T11:56:20;102417.38;;;7.67;41.01
29371;BME280;16357;52.188;7.838;2023-02-28T12:01:49;102417.47;;;7.80;40.60
29371;BME280;16357;52.188;7.838;2023-02-28T12:04:42;102410.84;;;7.85;40.55
29371;BME280;16357;52.188;7.838;2023-02-28T12:10:33;102396.81;;;7.96;39.89
29371;BME280;16357;52.188;7.838;2023-02-28T12:12:46;102387.63;;;8.00;39.75
29371;BME280;16357;52.188;7.838;2023-02-28T12:15:53;102390.84;;;8.05;39.96
29371;BME280;16357;52.188;7.838;2023-02-28T12:26:40;102382.25;;;8.14;39.63
29371;BME280;16357;52.188;7.838;2023-02-28T12:29:24;102377.00;;;8.13;39.34
29371;BME280;16357;52.188;7.838;2023-02-28T12:34:44;102371.00;;;8.09;39.32
29371;BME280;16357;52.188;7.838;2023-02-28T12:37:26;102363.19;;;8.06;39.23
29371;BME280;16357;52.188;7.838;2023-02-28T12:40:01;102357.09;;;8.04;39.15
29371;BME280;16357;52.188;7.838;2023-02-28T12:42:35;102356.22;;;8.04;39.34
29371;BME280;16357;52.188;7.838;2023-02-28T12:47:40;102351.09;;;8.01;39.29
29371;BME280;16357;52.188;7.838;2023-02-28T12:50:10;102351.09;;;8.01;39.54
29371;BME280;16357;52.188;7.838;2023-02-28T12:52:56;102343.25;;;7.98;39.45
29371;BME280;16357;52.188;7.838;2023-02-28T12:58:25;102351.19;;;7.99;40.49
29371;BME280;16357;52.188;7.838;2023-02-28T13:01:13;102336.75;;;8.02;40.59
29371;BME280;16357;52.188;7.838;2023-02-28T13:09:13;102334.44;;;8.10;39.62
29371;BME280;16357;52.188;7.838;2023-02-28T13:11:46;102335.28;;;8.10;39.98
29371;BME280;16357;52.188;7.838;2023-02-28T13:19:25;102325.34;;;8.12;39.67
29371;BME280;16357;52.188;7.838;2023-02-28T13:21:52;102326.22;;;8.13;39.73
29371;BME280;16357;52.188;7.838;2023-02-28T13:24:44;102312.63;;;8.16;39.68
29371;BME280;16357;52.188;7.838;2023-02-28T13:27:21;102315.13;;;8.19;39.98
29371;BME280;16357;52.188;7.838;2023-02-28T13:29:52;102327.53;;;8.20;39.32
29371;BME280;16357;52.188;7.838;2023-02-28T13:32:28;102329.06;;;8.24;39.62
29371;BME280;16357;52.188;7.838;2023-02-28T13:39:50;102320.50;;;8.32;39.54
29371;BME280;16357;52.188;7.838;2023-02-28T13:42:34;102313.13;;;8.35;39.98
29371;BME280;16357;52.188;7.838;2023-02-28T13:47:44;102327.94;;;8.41;40.10
29371;BME280;16357;52.188;7.838;2023-02-28T13:50:32;102332.22;;;8.44;40.17
29371;BME280;16357;52.188;7.838;2023-02-28T13:53:12;102321.31;;;8.47;40.08
29371;BME280;16357;52.188;7.838;2023-02-28T13:56:09;102322.94;;;8.49;39.62
29371;BME280;16357;52.188;7.838;2023-02-28T13:58:52;102315.75;;;8.50;39.13
29371;BME280;16357;52.188;7.838;2023-02-28T14:02:21;102330.94;;;8.49;38.87
29371;BME280;16357;52.188;7.838;2023-02-28T14:04:46;102326.78;;;8.45;39.20
29371;BME280;16357;52.188;7.838;2023-02-28T14:07:23;102325.34;;;8.40;39.32
29371;BME280;16357;52.188;7.838;2023-02-28T14:09:59;102325.75;;;8.33;39.29
29371;BME280;16357;52.188;7.838;2023-02-28T14:17:55;102309.78;;;8.19;39.86
29371;BME280;16357;52.188;7.838;2023-02-28T14:20:26;102317.03;;;8.17;39.86
29371;BME280;16357;52.188;7.838;2023-02-28T14:23:02;102318.88;;;8.17;40.03
29371;BME280;16357;52.188;7.838;2023-02-28T14:31:29;102302.81;;;8.17;40.18
29371;BME280;16357;52.188;7.838;2023-02-28T14:36:39;102295.88;;;8.14;40.24
29371;BME280;16357;52.188;7.838;2023-02-28T14:39:07;102294.03;;;8.14;40.06
29371;BME280;16357;52.188;7.838;2023-02-28T14:41:39;102294.88;;;8.15;40.70
29371;BME280;16357;52.188;7.838;2023-02-28T14:46:41;102290.19;;;8.19;40.21
29371;BME280;16357;52.188;7.838;2023-02-28T14:49:37;102283.78;;;8.21;40.52
29371;BME280;16357;52.188;7.838;2023-02-28T14:52:22;102277.38;;;8.24;40.31
29371;BME280;16357;52.188;7.838;2023-02-28T14:54:54;102277.28;;;8.25;40.20
29371;BME280;16357;52.188;7.838;2023-02-28T14:57:29;102287.88;;;8.27;39.85
29371;BME280;16357;52.188;7.838;2023-02-28T15:00:06;102284.44;;;8.25;39.36
29371;BME280;16357;52.188;7.838;2023-02-28T15:02:38;102278.25;;;8.24;39.46
29371;BME280;16357;52.188;7.838;2023-02-28T15:07:47;102280.38;;;8.19;39.89
29371;BME280;16357;52.188;7.838;2023-02-28T15:12:49;102292.44;;;8.12;39.49
29371;BME280;16357;52.188;7.838;2023-02-28T15:15:17;102287.28;;;8.09;39.69
29371;BME280;16357;52.188;7.838;2023-02-28T15:17:46;102287.38;;;8.07;39.59